Time;durP1;ratioP1;P1;durP2;ratioP2;P2;SDS_P1;SDS_P2;PMS_P1;PMS_P2;Temp;Humidity;BMP_temperature;BMP_pressure;BME280_temperature;BME280_humidity;BME280_pressure;Samples;Min_cycle;Max_cycle;Signal;HPM_P1;HPM_P2
2023/05/21 00:00:09;;;;;;;5.53;4.18;;;;;;;13.37;88.62;101750.00;4989085;28;20438;-73
2023/05/21 00:02:35;;;;;;;8.13;4.40;;;;;;;13.33;88.53;101746.03;4988955;28;20030;-73
2023/05/21 00:05:00;;;;;;;7.55;4.60;;;;;;;13.31;88.80;101748.09;4988882;28;20030;-73
2023/05/21 00:07:26;;;;;;;6.88;4.65;;;;;;;13.30;88.90;101750.94;4989007;28;20214;-73
2023/05/21 00:09:51;;;;;;;5.13;3.88;;;;;;;13.30;89.64;101751.78;4971586;28;20060;-73
2023/05/21 00:12:17;;;;;;;7.80;4.82;;;;;;;13.27;89.69;101749.47;4971486;28;20061;-73
2023/05/21 00:14:42;;;;;;;7.57;4.35;;;;;;;13.25;90.29;101743.44;4971143;28;20121;-73
2023/05/21 00:17:07;;;;;;;7.07;4.30;;;;;;;13.23;90.43;101737.47;4988615;28;20088;-73
2023/05/21 00:19:33;;;;;;;11.50;5.53;;;;;;;13.24;90.39;101740.97;4988832;28;20034;-73
2023/05/21 00:22:01;;;;;;;7.40;4.45;;;;;;;13.20;90.80;101726.28;4988881;28;20030;-73
2023/05/21 00:24:27;;;;;;;9.57;4.82;;;;;;;13.16;91.11;101733.91;4988952;28;20026;-73
2023/05/21 00:26:52;;;;;;;6.35;4.18;;;;;;;13.16;91.62;101731.22;4988937;28;20084;-73
2023/05/21 00:29:18;;;;;;;9.05;5.63;;;;;;;13.15;91.47;101733.06;4988768;28;20030;-73
2023/05/21 00:31:43;;;;;;;6.40;4.75;;;;;;;13.15;91.88;101729.53;4988346;28;20042;-73
2023/05/21 00:34:09;;;;;;;11.18;5.95;;;;;;;13.12;92.45;101730.75;4955370;28;20492;-73
2023/05/21 00:36:34;;;;;;;7.05;4.70;;;;;;;13.11;92.40;101726.44;4988706;28;20038;-73
2023/05/21 00:39:01;;;;;;;7.65;5.10;;;;;;;13.11;91.99;101726.44;4988777;28;20031;-73
2023/05/21 00:41:28;;;;;;;10.90;5.13;;;;;;;13.07;92.94;101718.97;4988948;28;20413;-73
2023/05/21 00:43:54;;;;;;;9.70;5.65;;;;;;;13.04;92.98;101720.19;4989073;28;20085;-73
2023/05/21 00:46:21;;;;;;;7.88;4.65;;;;;;;12.96;92.93;101712.28;4988426;28;20038;-73
2023/05/21 00:48:48;;;;;;;7.72;4.80;;;;;;;13.00;93.37;101712.75;4988681;28;20034;-73
2023/05/21 00:51:14;;;;;;;10.60;6.03;;;;;;;13.00;93.76;101712.75;4988331;28;20034;-73
2023/05/21 00:53:40;;;;;;;13.15;5.90;;;;;;;13.00;93.84;101710.88;4970959;28;20066;-73
2023/05/21 00:56:06;;;;;;;8.25;5.97;;;;;;;12.93;94.07;101713.50;4988364;28;20054;-73
2023/05/21 00:58:33;;;;;;;10.38;5.38;;;;;;;12.95;94.45;101710.63;4988967;28;20042;-73
2023/05/21 01:01:02;;;;;;;9.73;5.78;;;;;;;12.93;94.89;101704.63;4988390;28;20052;-73
2023/05/21 01:03:29;;;;;;;8.35;5.65;;;;;;;12.90;95.44;101708.50;4991820;28;20474;-73
2023/05/21 01:05:58;;;;;;;11.77;5.55;;;;;;;12.88;95.00;101717.75;4992095;28;20033;-73
2023/05/21 01:08:24;;;;;;;9.27;5.45;;;;;;;12.87;95.43;101721.47;4991893;28;20359;-73
2023/05/21 01:10:51;;;;;;;10.98;5.38;;;;;;;12.84;95.78;101711.16;4992095;28;20031;-74
2023/05/21 01:13:19;;;;;;;10.25;4.68;;;;;;;12.85;95.35;101702.09;4974285;28;20031;-73
2023/05/21 01:15:45;;;;;;;7.32;5.15;;;;;;;12.79;95.55;101694.81;4974727;28;20058;-73
2023/05/21 01:18:13;;;;;;;7.90;5.72;;;;;;;12.86;95.49;101715.28;4974306;28;20478;-73
2023/05/21 01:20:38;;;;;;;7.57;5.28;;;;;;;12.76;96.20;101697.84;4991759;28;20215;-73
2023/05/21 01:23:04;;;;;;;7.32;4.50;;;;;;;12.83;96.60;101707.63;4991511;28;20482;-73
2023/05/21 01:25:29;;;;;;;8.93;4.82;;;;;;;12.80;96.37;101699.16;4991446;28;20082;-73
2023/05/21 01:27:55;;;;;;;9.27;5.57;;;;;;;12.82;96.00;101707.81;4991725;28;20974;-73
2023/05/21 01:30:21;;;;;;;7.38;4.90;;;;;;;12.71;96.42;101696.59;4973915;28;20046;-73
2023/05/21 01:32:55;;;;;;;8.48;5.00;;;;;;;12.79;96.47;101708.22;4991563;28;20034;-73
2023/05/21 01:35:34;;;;;;;7.60;5.05;;;;;;;12.74;96.08;101700.75;4991621;28;20030;-73
2023/05/21 01:38:23;;;;;;;7.57;5.38;;;;;;;12.72;96.35;101695.56;4991490;28;20094;-73
2023/05/21 01:40:54;;;;;;;7.03;4.45;;;;;;;12.74;97.42;101702.59;4991077;28;20026;-73
2023/05/21 01:43:21;;;;;;;8.93;5.00;;;;;;;12.65;97.66;101691.16;4991280;28;21079;-73
2023/05/21 01:45:49;;;;;;;6.90;4.70;;;;;;;12.67;97.26;101692.63;4991154;28;20053;-73
2023/05/21 01:48:16;;;;;;;8.82;4.78;;;;;;;12.70;97.13;101700.28;4990981;28;20492;-73
2023/05/21 01:50:43;;;;;;;7.05;4.75;;;;;;;12.68;97.42;101688.94;4991021;28;20058;-73
2023/05/21 01:53:09;;;;;;;7.05;5.07;;;;;;;12.68;97.67;101688.09;4973359;28;20035;-73
2023/05/21 01:55:38;;;;;;;7.30;5.15;;;;;;;12.65;98.01;101686.66;4990923;28;20113;-73
2023/05/21 01:58:03;;;;;;;7.40;4.68;;;;;;;12.74;97.45;101687.34;4990882;28;20073;-73
2023/05/21 02:00:31;;;;;;;8.07;4.78;;;;;;;12.75;97.86;101699.72;4990825;28;20548;-74
2023/05/21 02:02:57;;;;;;;8.30;5.53;;;;;;;12.79;98.32;101689.47;4990933;28;20026;-73
2023/05/21 02:05:23;;;;;;;6.72;4.60;;;;;;;12.82;98.26;101678.38;4990879;28;20026;-73
2023/05/21 02:07:50;;;;;;;8.00;4.88;;;;;;;12.85;98.00;101692.19;4991260;28;20382;-73
2023/05/21 02:10:16;;;;;;;11.30;5.68;;;;;;;12.88;97.86;101686.44;4990909;28;20101;-73
2023/05/21 02:12:42;;;;;;;7.70;4.95;;;;;;;12.88;98.17;101681.09;4990726;28;20479;-73
2023/05/21 02:15:07;;;;;;;6.75;4.78;;;;;;;12.89;97.88;101674.75;4990681;28;20034;-73
2023/05/21 02:17:33;;;;;;;7.78;5.63;;;;;;;12.94;97.56;101679.50;4990782;28;20034;-73
2023/05/21 02:20:11;;;;;;;6.07;4.82;;;;;;;12.98;97.91;101685.31;4990692;28;20133;-73
2023/05/21 02:22:40;;;;;;;6.68;4.88;;;;;;;12.98;97.30;101679.97;4990448;28;20034;-73
2023/05/21 02:25:08;;;;;;;6.38;4.10;;;;;;;12.98;96.99;101682.63;4990395;28;20030;-73
2023/05/21 02:27:37;;;;;;;6.32;4.32;;;;;;;12.97;97.98;101681.81;4990546;28;20496;-73
2023/05/21 02:30:05;;;;;;;8.02;4.60;;;;;;;13.02;97.84;101682.06;4972727;28;20088;-73
2023/05/21 02:32:31;;;;;;;8.23;5.13;;;;;;;13.04;97.85;101685.38;4990356;28;20034;-73
2023/05/21 02:34:59;;;;;;;8.73;5.05;;;;;;;13.04;97.15;101685.38;4990184;28;20747;-73
2023/05/21 02:37:26;;;;;;;8.93;4.82;;;;;;;13.04;97.88;101685.38;4990191;28;20045;-73
2023/05/21 02:39:52;;;;;;;7.20;5.07;;;;;;;13.07;97.60;101694.88;4990307;28;20042;-73
2023/05/21 02:42:18;;;;;;;8.50;4.72;;;;;;;13.05;98.08;101684.38;4989956;28;20425;-73
2023/05/21 02:44:43;;;;;;;9.45;5.25;;;;;;;13.08;97.85;101686.66;4990208;28;20130;-73
2023/05/21 02:47:09;;;;;;;10.43;4.95;;;;;;;13.09;98.03;101685.63;4990064;28;20489;-73
2023/05/21 02:49:35;;;;;;;9.82;5.43;;;;;;;13.07;98.02;101678.78;4990077;28;20369;-73
2023/05/21 02:52:00;;;;;;;11.88;5.07;;;;;;;13.11;97.88;101686.25;4972562;28;20042;-73
2023/05/21 02:54:25;;;;;;;8.75;5.13;;;;;;;13.07;97.71;101682.31;4989654;28;20058;-73
2023/05/21 02:56:51;;;;;;;11.27;5.68;;;;;;;13.12;98.66;101679.88;4989908;28;20057;-73
2023/05/21 02:59:16;;;;;;;9.85;5.22;;;;;;;13.10;98.45;101679.25;4989677;28;20521;-73
2023/05/21 03:01:43;;;;;;;11.68;6.45;;;;;;;13.08;98.94;101681.28;4990333;28;20022;-73
2023/05/21 03:04:09;;;;;;;8.30;5.72;;;;;;;13.05;99.12;101665.63;4972170;28;20045;-73
2023/05/21 03:06:34;;;;;;;9.48;5.28;;;;;;;13.09;98.67;101672.22;4972234;28;20042;-73
2023/05/21 03:08:59;;;;;;;8.85;5.47;;;;;;;13.09;99.35;101672.22;4989621;28;20069;-73
2023/05/21 03:11:25;;;;;;;9.23;5.63;;;;;;;13.09;99.01;101666.88;4989532;28;20099;-73
2023/05/21 03:13:50;;;;;;;8.52;5.50;;;;;;;13.10;99.14;101667.72;4989743;28;20351;-73
2023/05/21 03:16:16;;;;;;;8.13;4.55;;;;;;;13.10;99.03;101662.38;4971888;28;20050;-73
2023/05/21 03:18:42;;;;;;;10.70;5.68;;;;;;;13.12;99.77;101658.44;4989510;28;20060;-73
2023/05/21 03:21:07;;;;;;;10.27;5.90;;;;;;;13.07;99.22;101655.53;4989505;28;20519;-73
2023/05/21 03:23:33;;;;;;;7.63;4.88;;;;;;;13.13;99.57;101656.63;4989506;28;20110;-73
2023/05/21 03:25:59;;;;;;;7.63;5.32;;;;;;;13.09;99.72;101649.97;4988825;28;20437;-73
2023/05/21 03:28:25;;;;;;;12.90;6.18;;;;;;;13.07;99.63;101649.34;4989654;28;20096;-73
2023/05/21 03:30:50;;;;;;;10.50;5.80;;;;;;;13.09;100.00;101649.97;4989311;28;20118;-73
2023/05/21 03:33:16;;;;;;;7.00;5.07;;;;;;;13.08;100.00;101649.16;4990101;28;20026;-73
2023/05/21 03:35:41;;;;;;;8.95;5.45;;;;;;;13.08;100.00;101648.34;4989449;28;20061;-73
2023/05/21 03:38:07;;;;;;;7.75;4.90;;;;;;;13.05;100.00;101652.22;4989229;28;20072;-73
2023/05/21 03:40:32;;;;;;;9.95;4.82;;;;;;;13.00;100.00;101640.44;4989146;28;20038;-73
2023/05/21 03:42:57;;;;;;;10.70;5.75;;;;;;;13.01;100.00;101640.22;4955506;28;20507;-73
2023/05/21 03:45:23;;;;;;;10.32;5.30;;;;;;;13.02;100.00;101647.25;4989301;28;20061;-73
2023/05/21 03:47:48;;;;;;;7.60;5.07;;;;;;;12.95;100.00;101643.69;4971483;28;20034;-73
2023/05/21 03:50:13;;;;;;;9.05;5.60;;;;;;;12.90;100.00;101641.59;4971463;28;20030;-73
2023/05/21 03:52:39;;;;;;;11.00;5.85;;;;;;;13.00;100.00;101653.81;4988926;28;20026;-73
2023/05/21 03:55:05;;;;;;;9.90;5.75;;;;;;;12.87;100.00;101641.97;4968029;28;20062;-73
2023/05/21 03:57:30;;;;;;;8.07;5.53;;;;;;;12.92;100.00;101654.78;4969890;28;20513;-73
2023/05/21 03:59:57;;;;;;;9.88;6.15;;;;;;;12.95;100.00;101654.41;4969524;28;20031;-73
2023/05/21 04:02:25;;;;;;;11.05;6.07;;;;;;;12.92;100.00;101652.94;4969478;28;20054;-73
2023/05/21 04:04:52;;;;;;;8.70;5.05;;;;;;;12.96;100.00;101657.91;4969511;28;20034;-73
2023/05/21 04:07:18;;;;;;;10.18;6.10;;;;;;;12.86;100.00;101644.81;4951363;28;20082;-73
2023/05/21 04:09:43;;;;;;;12.32;5.65;;;;;;;12.90;100.00;101654.16;4952844;28;20360;-73
2023/05/21 04:12:09;;;;;;;8.57;5.63;;;;;;;12.91;100.00;101655.78;4969259;28;20054;-73
2023/05/21 04:14:36;;;;;;;9.48;6.22;;;;;;;12.90;100.00;101654.97;4969385;28;20062;-73
2023/05/21 04:17:03;;;;;;;10.35;6.65;;;;;;;12.93;100.00;101659.09;4969302;28;20054;-73
2023/05/21 04:19:29;;;;;;;8.95;4.88;;;;;;;12.91;100.00;101653.94;4969458;28;20176;-73
2023/05/21 04:21:54;;;;;;;9.88;6.00;;;;;;;12.90;100.00;101659.50;4968096;28;20441;-73
2023/05/21 04:24:21;;;;;;;13.32;6.50;;;;;;;12.91;100.00;101658.47;4968206;28;20090;-73
2023/05/21 04:26:46;;;;;;;10.70;6.00;;;;;;;12.92;100.00;101660.97;4968090;28;20371;-73
2023/05/21 04:29:12;;;;;;;9.27;4.95;;;;;;;12.92;100.00;101663.66;4969285;28;20054;-73
2023/05/21 04:31:37;;;;;;;13.35;7.03;;;;;;;12.96;100.00;101668.59;4969563;28;20042;-73
2023/05/21 04:34:03;;;;;;;10.93;6.25;;;;;;;12.93;100.00;101661.78;4968244;28;20383;-73
2023/05/21 04:36:29;;;;;;;12.77;6.40;;;;;;;12.93;100.00;101659.09;4969840;28;20440;-73
2023/05/21 04:38:54;;;;;;;17.33;6.32;;;;;;;12.92;100.00;101655.59;4973204;28;20058;-73
2023/05/21 04:41:20;;;;;;;9.73;4.90;;;;;;;12.98;100.00;101669.25;4972905;28;20096;-73
2023/05/21 04:43:45;;;;;;;9.40;6.03;;;;;;;12.98;100.00;101674.59;4971409;28;20061;-72
2023/05/21 04:46:11;;;;;;;11.02;5.30;;;;;;;12.97;100.00;101672.94;4972696;28;20393;-73
2023/05/21 04:48:36;;;;;;;12.82;6.60;;;;;;;13.00;100.00;101670.72;4972686;28;20035;-73
2023/05/21 04:51:04;;;;;;;11.98;6.25;;;;;;;13.03;100.00;101669.50;4972597;28;20536;-73
2023/05/21 04:53:30;;;;;;;9.93;5.82;;;;;;;13.05;100.00;101670.97;4972702;28;20046;-73
2023/05/21 04:55:58;;;;;;;10.35;6.35;;;;;;;12.98;100.00;101655.88;4987240;28;20409;-73
2023/05/21 04:58:23;;;;;;;11.82;5.53;;;;;;;13.02;100.00;101668.69;4991843;28;20038;-73
2023/05/21 05:00:50;;;;;;;10.20;5.82;;;;;;;13.09;100.00;101676.75;4992021;28;20030;-73
2023/05/21 05:03:16;;;;;;;13.23;6.45;;;;;;;13.08;100.00;101672.44;4992378;28;20658;-73
2023/05/21 05:05:41;;;;;;;9.45;6.18;;;;;;;13.09;100.00;101671.41;4991991;28;20034;-73
2023/05/21 05:08:07;;;;;;;13.27;6.75;;;;;;;13.13;100.00;101680.72;4974340;28;20948;-73
2023/05/21 05:10:32;;;;;;;9.57;5.70;;;;;;;13.14;100.00;101669.78;4974389;28;20070;-73
2023/05/21 05:12:58;;;;;;;9.90;5.78;;;;;;;13.13;100.00;101668.16;4991963;28;20026;-73
2023/05/21 05:15:23;;;;;;;11.20;5.95;;;;;;;13.11;100.00;101664.84;4992032;28;20103;-73
2023/05/21 05:17:49;;;;;;;14.27;6.50;;;;;;;13.15;100.00;101676.81;4992115;28;20026;-72
2023/05/21 05:20:14;;;;;;;9.93;6.55;;;;;;;13.12;100.00;101652.25;4989284;28;20030;-73
2023/05/21 05:22:40;;;;;;;10.88;7.68;;;;;;;13.17;100.00;101657.88;4991766;28;20049;-73
2023/05/21 05:25:06;;;;;;;9.95;6.35;;;;;;;13.14;100.00;101655.59;4974162;28;20076;-73
2023/05/21 05:27:31;;;;;;;11.00;6.03;;;;;;;13.13;100.00;101652.09;4991697;28;20045;-73
2023/05/21 05:29:57;;;;;;;11.95;6.75;;;;;;;13.22;100.00;101651.94;4991649;28;20047;-73
2023/05/21 05:32:22;;;;;;;12.65;5.90;;;;;;;13.15;100.00;101644.69;4974198;28;20037;-73
2023/05/21 05:34:48;;;;;;;10.23;6.65;;;;;;;13.23;100.00;101657.13;4991615;28;20030;-73
2023/05/21 05:37:13;;;;;;;12.27;6.53;;;;;;;13.27;100.00;101654.91;4991586;28;20041;-73
2023/05/21 05:39:38;;;;;;;11.65;6.20;;;;;;;13.33;100.00;101662.97;4991602;28;20038;-73
2023/05/21 05:42:04;;;;;;;11.25;6.43;;;;;;;13.36;100.00;101661.75;4991570;28;20022;-72
2023/05/21 05:44:29;;;;;;;9.88;6.80;;;;;;;13.40;100.00;101663.03;4991358;28;20085;-73
2023/05/21 05:46:55;;;;;;;8.57;5.95;;;;;;;13.46;100.00;101667.59;4991217;28;20179;-73
2023/05/21 05:49:20;;;;;;;13.32;7.03;;;;;;;13.44;100.00;101653.59;4991080;28;20031;-73
2023/05/21 05:51:45;;;;;;;12.32;6.35;;;;;;;13.56;100.00;101662.72;4991231;28;20112;-73
2023/05/21 05:54:11;;;;;;;13.07;7.65;;;;;;;13.61;100.00;101659.44;4991180;28;20064;-73
2023/05/21 05:56:36;;;;;;;10.35;6.55;;;;;;;13.66;100.00;101661.56;4973744;28;20026;-72
2023/05/21 05:59:01;;;;;;;10.98;6.95;;;;;;;13.70;100.00;101665.47;4973565;28;20061;-73
2023/05/21 06:01:27;;;;;;;10.32;6.63;;;;;;;13.71;100.00;101659.09;4991272;28;20046;-72
2023/05/21 06:03:52;;;;;;;11.82;6.18;;;;;;;13.73;100.00;101668.63;4991090;28;20030;-72
2023/05/21 06:06:18;;;;;;;11.23;7.30;;;;;;;13.81;100.00;101670.31;4991018;28;20034;-73
2023/05/21 06:08:43;;;;;;;10.68;6.00;;;;;;;13.90;100.00;101668.28;4990846;28;20489;-73
2023/05/21 06:11:09;;;;;;;11.13;6.28;;;;;;;13.95;100.00;101663.97;4990865;28;20038;-72
2023/05/21 06:13:35;;;;;;;10.75;7.07;;;;;;;14.03;100.00;101660.28;4990608;28;20034;-73
2023/05/21 06:16:00;;;;;;;11.15;6.85;;;;;;;14.17;100.00;101671.91;4990845;28;20026;-73
2023/05/21 06:18:25;;;;;;;12.43;7.15;;;;;;;14.30;100.00;101671.94;4972327;28;20617;-72
2023/05/21 06:20:51;;;;;;;10.85;6.97;;;;;;;14.33;99.59;101666.22;4972210;28;20418;-73
2023/05/21 06:23:16;;;;;;;13.10;7.45;;;;;;;14.41;98.68;101671.38;4972282;28;20060;-72
2023/05/21 06:25:42;;;;;;;11.80;7.45;;;;;;;14.45;98.66;101675.31;4971810;28;20394;-72
2023/05/21 06:28:07;;;;;;;14.48;7.65;;;;;;;14.43;98.67;101669.31;4972109;28;20100;-73
2023/05/21 06:30:32;;;;;;;13.13;6.65;;;;;;;14.48;98.52;101668.72;4954419;28;20513;-73
2023/05/21 06:32:58;;;;;;;11.98;6.85;;;;;;;14.52;97.82;101663.78;4972123;28;20117;-72
2023/05/21 06:35:23;;;;;;;12.98;7.50;;;;;;;14.56;100.00;101670.41;4971876;28;20149;-73
2023/05/21 06:37:48;;;;;;;12.27;7.05;;;;;;;14.60;97.73;101663.63;4971902;28;20046;-73
2023/05/21 06:40:14;;;;;;;12.80;7.60;;;;;;;14.64;97.95;101668.34;4972001;28;20049;-72
2023/05/21 06:42:39;;;;;;;11.85;7.28;;;;;;;14.73;97.48;101660.97;4971798;28;20026;-72
2023/05/21 06:45:05;;;;;;;12.38;7.38;;;;;;;14.81;96.65;101668.81;4972096;28;20549;-72
2023/05/21 06:47:31;;;;;;;11.02;6.90;;;;;;;14.88;96.27;101668.81;4971646;28;20038;-72
2023/05/21 06:49:57;;;;;;;12.15;7.25;;;;;;;14.90;97.23;101664.88;4954262;28;20036;-72
2023/05/21 06:52:22;;;;;;;13.23;8.05;;;;;;;14.93;96.45;101657.47;4971572;28;20390;-73
2023/05/21 06:54:48;;;;;;;12.95;7.65;;;;;;;14.96;96.17;101668.63;4954182;28;20071;-72
2023/05/21 06:57:14;;;;;;;13.15;7.47;;;;;;;15.07;95.73;101667.19;4971315;28;20070;-72
2023/05/21 06:59:40;;;;;;;15.30;7.30;;;;;;;15.09;95.55;101663.25;4970739;28;20031;-73
2023/05/21 07:02:05;;;;;;;11.50;7.00;;;;;;;15.12;95.03;101651.28;4953978;28;20702;-72
2023/05/21 07:04:31;;;;;;;11.93;7.88;;;;;;;15.25;96.80;101658.50;4954118;28;20026;-73
2023/05/21 07:06:56;;;;;;;14.98;8.05;;;;;;;15.37;95.79;101664.88;4971449;28;20039;-73
2023/05/21 07:09:23;;;;;;;11.43;7.05;;;;;;;15.45;94.90;101653.91;4953686;28;20030;-73
2023/05/21 07:11:48;;;;;;;14.93;8.43;;;;;;;15.49;93.22;101657.84;4971179;28;20499;-72
2023/05/21 07:14:13;;;;;;;12.32;7.38;;;;;;;15.51;93.17;101644.19;4985175;28;20109;-74
2023/05/21 07:16:39;;;;;;;13.00;7.45;;;;;;;15.59;92.21;101648.50;4968497;28;20952;-73
2023/05/21 07:19:04;;;;;;;11.70;6.93;;;;;;;15.60;92.52;101637.56;4980657;28;20035;-73
2023/05/21 07:21:30;;;;;;;15.85;8.32;;;;;;;15.64;93.25;101641.50;4989580;28;20050;-73
2023/05/21 07:23:55;;;;;;;17.45;9.05;;;;;;;15.73;92.82;101642.94;4987516;28;20058;-70
2023/05/21 07:26:21;;;;;;;13.63;7.72;;;;;;;15.82;92.00;101635.44;4970567;28;20491;-72
2023/05/21 07:28:46;;;;;;;13.23;7.93;;;;;;;15.85;91.92;101635.03;4970211;28;20075;-71
2023/05/21 07:31:12;;;;;;;17.70;8.13;;;;;;;15.87;91.18;101641.00;4970681;28;20117;-72
2023/05/21 07:33:37;;;;;;;13.88;8.55;;;;;;;15.93;92.10;101640.19;4970890;28;20030;-71
2023/05/21 07:36:03;;;;;;;11.32;7.45;;;;;;;15.99;91.28;101628.56;4971050;28;20051;-72
2023/05/21 07:38:29;;;;;;;14.73;8.05;;;;;;;16.10;91.02;101629.75;4970655;28;20030;-72
2023/05/21 07:40:55;;;;;;;15.73;7.88;;;;;;;16.09;91.03;101638.06;4953031;28;20482;-72
2023/05/21 07:43:21;;;;;;;14.43;8.43;;;;;;;16.17;90.96;101637.81;4986388;28;20042;-72
2023/05/21 07:45:46;;;;;;;14.00;8.32;;;;;;;16.22;90.22;101638.00;4978868;28;20216;-70
2023/05/21 07:48:12;;;;;;;13.98;8.27;;;;;;;16.32;90.63;101637.50;4980151;28;20031;-70
2023/05/21 07:50:37;;;;;;;13.93;8.32;;;;;;;16.30;90.58;101624.28;4979049;28;20026;-70
2023/05/21 07:53:03;;;;;;;11.27;6.78;;;;;;;16.36;89.07;101636.06;4970590;28;20108;-70
2023/05/21 07:55:28;;;;;;;13.48;7.68;;;;;;;16.46;89.75;101630.19;4969761;28;20671;-70
2023/05/21 07:57:54;;;;;;;15.55;8.90;;;;;;;16.59;88.23;101630.94;4970182;28;20145;-70
2023/05/21 08:00:22;;;;;;;13.40;8.13;;;;;;;16.57;88.68;101635.72;4970456;28;20085;-70
2023/05/21 08:02:48;;;;;;;15.32;8.40;;;;;;;16.64;88.99;101641.88;4970668;28;20097;-70
2023/05/21 08:05:15;;;;;;;16.08;7.45;;;;;;;16.74;88.16;101635.16;4970643;28;20046;-70
2023/05/21 08:07:40;;;;;;;13.15;8.07;;;;;;;16.81;88.70;101634.13;4970749;28;20034;-70
2023/05/21 08:10:06;;;;;;;16.15;9.07;;;;;;;17.20;86.79;101626.75;4970819;28;20035;-70
2023/05/21 08:12:31;;;;;;;12.68;8.07;;;;;;;18.25;83.79;101636.59;4974510;28;20430;-70
2023/05/21 08:14:58;;;;;;;15.10;7.65;;;;;;;19.35;77.88;101627.19;4974469;28;20413;-70
2023/05/21 08:17:23;;;;;;;14.18;7.43;;;;;;;20.22;75.01;101631.72;4974539;28;20026;-70
2023/05/21 08:19:49;;;;;;;13.43;8.10;;;;;;;20.97;69.48;101621.66;4974503;28;20062;-70
2023/05/21 08:22:14;;;;;;;12.02;7.13;;;;;;;21.31;67.58;101627.88;4974840;28;20051;-70
2023/05/21 08:24:40;;;;;;;12.20;7.70;;;;;;;21.80;63.31;101622.59;4974053;28;20035;-70
2023/05/21 08:27:06;;;;;;;11.70;7.10;;;;;;;22.36;62.85;101635.19;4974206;28;20479;-70
2023/05/21 08:29:32;;;;;;;12.60;8.45;;;;;;;22.47;61.85;101626.84;4974311;28;20038;-71
2023/05/21 08:31:57;;;;;;;12.38;7.78;;;;;;;22.49;60.75;101629.31;4974150;28;20030;-70
2023/05/21 08:34:23;;;;;;;11.65;8.07;;;;;;;22.69;59.45;101629.53;4974168;28;20035;-70
2023/05/21 08:36:48;;;;;;;11.48;7.25;;;;;;;22.60;59.88;101628.34;4974263;28;20373;-70
2023/05/21 08:39:14;;;;;;;12.30;7.47;;;;;;;22.49;59.74;101619.28;4973984;28;20031;-70
2023/05/21 08:41:42;;;;;;;13.07;7.75;;;;;;;22.40;61.12;101614.53;4975789;28;20459;-70
2023/05/21 08:44:11;;;;;;;14.40;6.93;;;;;;;22.81;61.17;101614.91;4992542;28;20095;-70
2023/05/21 08:46:40;;;;;;;15.30;7.20;;;;;;;22.67;59.58;101626.22;4992415;28;20033;-70
2023/05/21 08:49:11;;;;;;;11.18;7.90;;;;;;;22.82;59.32;101613.81;4992576;28;20045;-70
2023/05/21 08:51:38;;;;;;;15.48;8.02;;;;;;;22.93;59.31;101618.28;4992281;28;20417;-70
2023/05/21 08:54:04;;;;;;;14.68;8.15;;;;;;;23.16;57.73;101614.38;4992594;28;20834;-70
2023/05/21 08:56:34;;;;;;;12.23;7.53;;;;;;;22.95;59.03;101618.81;4992200;28;20651;-70
2023/05/21 08:59:00;;;;;;;15.68;7.80;;;;;;;22.21;60.43;101609.47;4991576;28;20030;-69
2023/05/21 09:01:26;;;;;;;12.95;7.43;;;;;;;21.69;63.15;101606.41;4991896;28;20030;-69
2023/05/21 09:03:55;;;;;;;13.90;9.20;;;;;;;20.93;65.99;101606.94;4992285;28;20034;-69
2023/05/21 09:06:21;;;;;;;13.02;7.90;;;;;;;20.62;67.64;101605.63;4991975;28;20485;-70
2023/05/21 09:09:05;;;;;;;13.43;8.27;;;;;;;20.38;69.91;101604.91;4992058;28;20042;-70
2023/05/21 09:11:30;;;;;;;16.38;8.98;;;;;;;20.02;70.10;101604.25;4992304;28;20378;-70
2023/05/21 09:13:58;;;;;;;15.23;8.55;;;;;;;19.77;72.17;101604.56;4992081;28;20031;-69
2023/05/21 09:16:23;;;;;;;14.02;8.35;;;;;;;19.66;71.55;101598.09;4992006;28;20561;-69
2023/05/21 09:18:48;;;;;;;14.13;9.07;;;;;;;19.53;73.60;101593.75;4991746;28;20169;-70
2023/05/21 09:21:28;;;;;;;16.45;8.90;;;;;;;19.61;74.34;101592.56;4974571;28;20034;-69
2023/05/21 09:23:55;;;;;;;15.40;9.85;;;;;;;19.58;75.10;101590.34;4991306;28;20037;-69
2023/05/21 09:26:22;;;;;;;16.95;8.90;;;;;;;19.73;73.97;101596.09;4991792;28;20042;-70
2023/05/21 09:28:47;;;;;;;13.32;8.30;;;;;;;19.67;72.63;101588.94;4991881;28;20034;-70
2023/05/21 09:31:12;;;;;;;14.80;8.57;;;;;;;19.63;75.46;101593.97;4991635;28;20045;-69
2023/05/21 09:33:45;;;;;;;16.08;9.15;;;;;;;19.68;74.62;101591.41;4991386;28;20030;-72
2023/05/21 09:36:11;;;;;;;13.80;8.10;;;;;;;19.99;75.27;101593.88;4991013;28;20030;-71
2023/05/21 09:38:37;;;;;;;12.75;8.70;;;;;;;19.94;72.52;101591.91;4991379;28;20436;-72
2023/05/21 09:41:05;;;;;;;18.65;8.63;;;;;;;20.18;73.25;101592.63;4991637;28;20022;-72
2023/05/21 09:43:31;;;;;;;19.38;10.63;;;;;;;20.18;72.42;101589.13;4991542;28;20038;-71
2023/05/21 09:45:58;;;;;;;15.88;9.48;;;;;;;20.12;72.96;101590.88;4986618;28;20022;-74
2023/05/21 09:48:40;;;;;;;13.70;8.15;;;;;;;20.10;73.52;101591.16;4982719;28;20494;-74
2023/05/21 09:51:14;;;;;;;15.57;8.00;;;;;;;20.03;73.67;101586.94;4983183;28;20125;-74
2023/05/21 09:53:46;;;;;;;16.33;9.88;;;;;;;20.03;73.08;101574.22;4986316;28;20089;-74
2023/05/21 09:56:12;;;;;;;17.73;8.48;;;;;;;20.04;73.50;101584.00;4982728;28;20093;-74
2023/05/21 09:58:38;;;;;;;16.63;9.63;;;;;;;20.10;72.92;101579.50;4987695;28;20552;-74
2023/05/21 10:01:03;;;;;;;15.07;8.52;;;;;;;20.23;73.03;101564.84;4981806;28;20034;-74
2023/05/21 10:03:31;;;;;;;14.25;8.40;;;;;;;20.47;72.96;101573.66;4985867;28;20027;-73
2023/05/21 10:05:58;;;;;;;15.13;8.75;;;;;;;20.42;71.13;101577.09;4982759;28;20080;-74
2023/05/21 10:08:29;;;;;;;17.33;10.70;;;;;;;20.37;71.84;101574.28;4982165;28;20045;-74
2023/05/21 10:10:54;;;;;;;16.97;10.20;;;;;;;20.41;71.85;101574.59;4976850;28;20117;-74
2023/05/21 10:13:22;;;;;;;20.95;10.57;;;;;;;20.45;71.61;101573.06;4976963;28;20698;-74
2023/05/21 10:16:01;;;;;;;21.10;11.20;;;;;;;20.48;70.65;101567.97;4980898;28;20023;-74
2023/05/21 10:18:29;;;;;;;17.67;10.40;;;;;;;20.63;72.13;101558.50;4980805;28;20030;-74
2023/05/21 10:20:55;;;;;;;18.17;10.32;;;;;;;20.78;73.11;101559.56;4981172;28;20035;-74
2023/05/21 10:23:22;;;;;;;19.95;11.77;;;;;;;20.92;69.54;101553.78;4978849;28;20446;-74
2023/05/21 10:25:48;;;;;;;18.67;10.68;;;;;;;21.08;70.00;101562.97;4972563;28;20052;-74
2023/05/21 10:28:16;;;;;;;19.25;11.40;;;;;;;21.06;69.57;101557.78;4982032;28;20034;-74
2023/05/21 10:30:42;;;;;;;20.52;13.02;;;;;;;21.15;69.42;101560.91;4983873;28;20092;-74
2023/05/21 10:33:08;;;;;;;17.77;10.85;;;;;;;21.25;69.28;101569.19;4982839;28;20031;-70
2023/05/21 10:35:33;;;;;;;17.88;11.07;;;;;;;21.11;68.39;101570.59;4980370;28;20055;-74
2023/05/21 10:38:03;;;;;;;19.05;10.80;;;;;;;21.03;68.59;101555.56;4965013;28;20110;-76
2023/05/21 10:40:28;;;;;;;17.60;10.75;;;;;;;21.02;69.61;101562.88;4981721;28;20508;-71
2023/05/21 10:43:32;;;;;;;18.42;12.30;;;;;;;21.08;69.39;101566.50;4982492;28;20042;-70
2023/05/21 10:46:35;;;;;;;20.63;11.95;;;;;;;21.05;70.10;101558.03;4952060;28;20125;-71
2023/05/21 10:49:24;;;;;;;19.23;11.25;;;;;;;20.92;70.08;101549.19;4981213;28;20026;-71
2023/05/21 10:52:02;;;;;;;17.02;10.45;;;;;;;20.92;70.42;101554.59;4982441;28;20026;-71
2023/05/21 10:54:46;;;;;;;19.38;10.50;;;;;;;20.97;70.37;101543.81;4981335;28;20068;-71
2023/05/21 10:57:20;;;;;;;20.83;11.57;;;;;;;21.17;69.56;101542.50;4981630;28;20034;-76
2023/05/21 10:59:46;;;;;;;22.05;11.43;;;;;;;21.09;70.35;101532.03;4981812;28;20042;-78
2023/05/21 11:02:13;;;;;;;23.25;11.25;;;;;;;21.02;68.74;101535.75;4980968;28;20026;-70
2023/05/21 11:04:42;;;;;;;19.73;11.40;;;;;;;21.06;71.05;101529.84;4980904;28;20019;-73
2023/05/21 11:07:08;;;;;;;19.30;10.57;;;;;;;21.02;69.60;101533.06;4986660;28;20039;-76
2023/05/21 11:09:33;;;;;;;20.05;11.90;;;;;;;21.02;69.80;101515.97;4986598;28;20056;-75
2023/05/21 11:12:00;;;;;;;18.60;11.18;;;;;;;21.16;69.77;101522.66;4976259;28;20031;-76
2023/05/21 11:14:39;;;;;;;20.98;10.23;;;;;;;21.26;71.79;101516.53;4973381;28;20038;-75